Time;durP1;ratioP1;P1;durP2;ratioP2;P2;SDS_P1;SDS_P2;PMS_P1;PMS_P2;Temp;Humidity;BMP_temperature;BMP_pressure;BME280_temperature;BME280_humidity;BME280_pressure;Samples;Min_cycle;Max_cycle;Signal;HPM_P1;HPM_P2
2023/08/27 00:00:52;;;;;;;;;;;14.40;99.90;;;;;;5072908;28;19974;-40
2023/08/27 00:03:19;;;;;;;;;;;14.40;99.90;;;;;;5075603;28;19947;-40
2023/08/27 00:05:45;;;;;;;;;;;14.40;99.90;;;;;;5072677;28;20424;-40
2023/08/27 00:08:12;;;;;;;;;;;14.40;99.90;;;;;;5075047;28;19925;-40
2023/08/27 00:10:39;;;;;;;;;;;14.30;99.90;;;;;;5073607;28;19929;-40
2023/08/27 00:13:05;;;;;;;;;;;14.30;99.90;;;;;;5073242;28;19928;-40
2023/08/27 00:15:32;;;;;;;;;;;14.30;99.90;;;;;;5073537;28;19933;-40
2023/08/27 00:18:00;;;;;;;;;;;14.30;99.90;;;;;;5073294;28;19931;-40
2023/08/27 00:20:27;;;;;;;;;;;14.30;99.90;;;;;;5073488;28;19936;-40
2023/08/27 00:22:54;;;;;;;;;;;14.20;99.90;;;;;;5073558;28;19968;-40
2023/08/27 00:25:21;;;;;;;;;;;14.20;99.90;;;;;;5073940;28;20340;-40
2023/08/27 00:27:47;;;;;;;;;;;14.20;99.90;;;;;;5073330;28;20403;-41
2023/08/27 00:30:14;;;;;;;;;;;14.20;99.90;;;;;;5073325;28;19925;-40
2023/08/27 00:32:41;;;;;;;;;;;14.10;99.90;;;;;;5072767;28;19932;-40
2023/08/27 00:35:09;;;;;;;;;;;14.10;99.90;;;;;;5072793;28;20316;-39
2023/08/27 00:37:36;;;;;;;;;;;14.10;99.90;;;;;;5072945;28;19924;-40
2023/08/27 00:40:03;;;;;;;;;;;14.10;99.90;;;;;;5073503;28;20300;-40
2023/08/27 00:42:30;;;;;;;;;;;14.10;99.90;;;;;;5070576;28;19932;-39
2023/08/27 00:44:56;;;;;;;;;;;14.00;99.90;;;;;;5073601;28;19977;-39
2023/08/27 00:47:23;;;;;;;;;;;14.00;99.90;;;;;;5074213;28;19971;-40
2023/08/27 00:49:50;;;;;;;;;;;14.00;99.90;;;;;;5073029;28;19956;-40
2023/08/27 00:52:19;;;;;;;;;;;14.00;99.90;;;;;;5072285;28;20309;-40
2023/08/27 00:54:46;;;;;;;;;;;13.90;99.90;;;;;;5073477;28;20376;-40
2023/08/27 00:57:13;;;;;;;;;;;13.90;99.90;;;;;;5072441;28;20027;-40
2023/08/27 00:59:39;;;;;;;;;;;13.90;99.90;;;;;;5070840;28;19970;-41
2023/08/27 01:02:06;;;;;;;;;;;13.90;99.90;;;;;;5072395;28;20285;-40
2023/08/27 01:04:34;;;;;;;;;;;13.90;99.90;;;;;;5072415;28;19978;-41
2023/08/27 01:07:02;;;;;;;;;;;13.80;99.90;;;;;;5071459;28;19924;-40
2023/08/27 01:09:32;;;;;;;;;;;13.80;99.90;;;;;;5071725;28;19978;-40
2023/08/27 01:12:00;;;;;;;;;;;13.80;99.90;;;;;;5073380;28;20296;-40
2023/08/27 01:14:28;;;;;;;;;;;13.80;99.90;;;;;;5071155;28;19929;-40
2023/08/27 01:16:54;;;;;;;;;;;13.80;99.90;;;;;;5066131;28;20373;-40
2023/08/27 01:19:21;;;;;;;;;;;13.90;99.90;;;;;;5067264;28;19925;-40
2023/08/27 01:21:49;;;;;;;;;;;13.90;99.90;;;;;;5072407;28;19928;-41
2023/08/27 01:24:16;;;;;;;;;;;13.90;99.90;;;;;;5070200;28;19970;-40
2023/08/27 01:26:43;;;;;;;;;;;13.90;99.90;;;;;;5071984;28;19929;-40
2023/08/27 01:29:11;;;;;;;;;;;13.90;99.90;;;;;;5070374;28;19925;-40
2023/08/27 01:31:40;;;;;;;;;;;13.90;99.90;;;;;;5067521;28;19929;-40
2023/08/27 01:34:08;;;;;;;;;;;13.90;99.90;;;;;;5072622;28;19924;-40
2023/08/27 01:36:35;;;;;;;;;;;13.90;99.90;;;;;;5072850;28;20315;-40
2023/08/27 01:39:04;;;;;;;;;;;13.90;99.90;;;;;;5059677;28;19925;-40
2023/08/27 01:41:31;;;;;;;;;;;13.90;99.90;;;;;;5071299;28;19962;-40
2023/08/27 01:43:58;;;;;;;;;;;13.90;99.90;;;;;;5072464;28;19932;-40
2023/08/27 01:46:24;;;;;;;;;;;13.90;99.90;;;;;;5070119;28;19936;-40
2023/08/27 01:48:51;;;;;;;;;;;13.90;99.90;;;;;;5070795;28;20390;-40
2023/08/27 01:51:18;;;;;;;;;;;13.90;99.90;;;;;;5072503;28;19936;-40
2023/08/27 01:53:45;;;;;;;;;;;13.90;99.90;;;;;;5068419;28;19932;-41
2023/08/27 01:56:13;;;;;;;;;;;13.80;99.90;;;;;;5072913;28;19994;-40
2023/08/27 01:58:39;;;;;;;;;;;13.80;99.90;;;;;;5070766;28;19974;-40
2023/08/27 02:01:06;;;;;;;;;;;13.80;99.90;;;;;;5071585;28;20388;-40
2023/08/27 02:03:33;;;;;;;;;;;13.80;99.90;;;;;;5071508;28;19924;-40
2023/08/27 02:06:00;;;;;;;;;;;13.80;99.90;;;;;;5071437;28;19925;-40
2023/08/27 02:08:26;;;;;;;;;;;13.80;99.90;;;;;;5069460;28;19970;-40
2023/08/27 02:10:53;;;;;;;;;;;13.80;99.90;;;;;;5059794;28;20347;-40
2023/08/27 02:13:21;;;;;;;;;;;13.80;99.90;;;;;;5072153;28;19931;-40
2023/08/27 02:15:48;;;;;;;;;;;13.80;99.90;;;;;;5070021;28;19928;-40
2023/08/27 02:18:15;;;;;;;;;;;13.70;99.90;;;;;;5072187;28;19932;-41
2023/08/27 02:20:43;;;;;;;;;;;13.70;99.90;;;;;;5069761;28;19925;-40
2023/08/27 02:23:10;;;;;;;;;;;13.70;99.90;;;;;;5070151;28;19968;-40
2023/08/27 02:25:36;;;;;;;;;;;13.70;99.90;;;;;;5069584;28;19924;-40
2023/08/27 02:28:04;;;;;;;;;;;13.70;99.90;;;;;;5072074;28;19972;-40
2023/08/27 02:30:32;;;;;;;;;;;13.70;99.90;;;;;;5070538;28;19925;-40
2023/08/27 02:32:58;;;;;;;;;;;13.70;99.90;;;;;;5071748;28;19936;-40
2023/08/27 02:35:25;;;;;;;;;;;13.60;99.90;;;;;;5070618;28;19924;-40
2023/08/27 02:37:52;;;;;;;;;;;13.60;99.90;;;;;;5069420;28;19924;-40
2023/08/27 02:40:18;;;;;;;;;;;13.60;99.90;;;;;;5065774;28;19928;-40
2023/08/27 02:42:45;;;;;;;;;;;13.60;99.90;;;;;;5070253;28;19925;-40
2023/08/27 02:45:12;;;;;;;;;;;13.60;99.90;;;;;;5072165;28;19924;-40
2023/08/27 02:47:40;;;;;;;;;;;13.60;99.90;;;;;;5070363;28;19928;-40
2023/08/27 02:50:07;;;;;;;;;;;13.60;99.90;;;;;;5069924;28;19932;-40
2023/08/27 02:52:34;;;;;;;;;;;13.60;99.90;;;;;;5060358;28;20285;-40
2023/08/27 02:55:01;;;;;;;;;;;13.60;99.90;;;;;;5064392;28;19925;-40
2023/08/27 02:57:28;;;;;;;;;;;13.60;99.90;;;;;;5070635;28;19937;-40
2023/08/27 02:59:54;;;;;;;;;;;13.60;99.90;;;;;;5069663;28;19924;-40
2023/08/27 03:02:21;;;;;;;;;;;13.60;99.90;;;;;;5070673;28;19928;-40
2023/08/27 03:04:49;;;;;;;;;;;13.60;99.90;;;;;;5072601;28;19928;-40
2023/08/27 03:07:16;;;;;;;;;;;13.60;99.90;;;;;;5075225;28;19925;-40
2023/08/27 03:09:42;;;;;;;;;;;13.60;99.90;;;;;;5074132;28;19970;-40
2023/08/27 03:12:09;;;;;;;;;;;13.60;99.90;;;;;;5074079;28;19925;-40
2023/08/27 03:14:36;;;;;;;;;;;13.60;99.90;;;;;;5075195;28;19924;-40
2023/08/27 03:17:02;;;;;;;;;;;13.60;99.90;;;;;;5075641;28;19970;-40
2023/08/27 03:19:29;;;;;;;;;;;13.70;99.90;;;;;;5074860;28;20415;-40
2023/08/27 03:21:57;;;;;;;;;;;13.70;99.90;;;;;;5074360;28;20453;-40
2023/08/27 03:24:24;;;;;;;;;;;13.70;99.90;;;;;;5075061;28;19925;-40
2023/08/27 03:26:51;;;;;;;;;;;13.70;99.90;;;;;;5074312;28;19931;-40
2023/08/27 03:29:17;;;;;;;;;;;13.70;99.90;;;;;;5074259;28;19977;-40
2023/08/27 03:31:44;;;;;;;;;;;13.70;99.90;;;;;;5074195;28;20330;-41
2023/08/27 03:34:12;;;;;;;;;;;13.70;99.90;;;;;;5075083;28;19924;-40
2023/08/27 03:36:38;;;;;;;;;;;13.70;99.90;;;;;;5073536;28;20002;-40
2023/08/27 03:39:08;;;;;;;;;;;13.70;99.90;;;;;;5073357;28;19928;-40
2023/08/27 03:41:35;;;;;;;;;;;13.80;99.90;;;;;;5073680;28;20066;-40
2023/08/27 03:44:01;;;;;;;;;;;13.80;99.90;;;;;;5070354;28;19924;-40
2023/08/27 03:46:28;;;;;;;;;;;13.80;99.90;;;;;;5073249;28;19928;-40
2023/08/27 03:48:55;;;;;;;;;;;13.80;99.90;;;;;;5073892;28;19924;-40
2023/08/27 03:51:21;;;;;;;;;;;13.80;99.90;;;;;;5073071;28;19928;-40
2023/08/27 03:53:48;;;;;;;;;;;13.90;99.90;;;;;;5074714;28;19932;-40
2023/08/27 03:56:16;;;;;;;;;;;13.80;99.90;;;;;;5073868;28;19932;-40
2023/08/27 03:58:43;;;;;;;;;;;13.90;99.90;;;;;;5072068;28;21607;-40
2023/08/27 04:01:10;;;;;;;;;;;13.90;99.90;;;;;;5074886;28;19924;-40
2023/08/27 04:03:36;;;;;;;;;;;13.90;99.90;;;;;;5073455;28;19981;-40
2023/08/27 04:06:05;;;;;;;;;;;13.90;99.90;;;;;;5072976;28;19975;-40
2023/08/27 04:08:32;;;;;;;;;;;13.90;99.90;;;;;;5062212;28;19924;-40
2023/08/27 04:10:59;;;;;;;;;;;13.90;99.90;;;;;;5070867;28;19932;-40
2023/08/27 04:13:27;;;;;;;;;;;13.90;99.90;;;;;;5074067;28;19932;-40
2023/08/27 04:16:00;;;;;;;;;;;13.90;99.90;;;;;;5071828;28;19931;-40
2023/08/27 04:18:27;;;;;;;;;;;13.90;99.90;;;;;;5074827;28;20380;-40
2023/08/27 04:20:53;;;;;;;;;;;13.80;99.90;;;;;;5073530;28;19925;-40
2023/08/27 04:23:20;;;;;;;;;;;13.80;99.90;;;;;;5074139;28;19924;-40
2023/08/27 04:25:47;;;;;;;;;;;13.80;99.90;;;;;;5072930;28;19932;-40
2023/08/27 04:28:14;;;;;;;;;;;13.80;99.90;;;;;;5073068;28;20347;-40
2023/08/27 04:30:43;;;;;;;;;;;13.80;99.90;;;;;;5073240;28;19925;-40
2023/08/27 04:33:10;;;;;;;;;;;13.80;99.90;;;;;;5074025;28;19974;-40
2023/08/27 04:35:37;;;;;;;;;;;13.70;99.90;;;;;;5073693;28;19930;-40
2023/08/27 04:38:04;;;;;;;;;;;13.70;99.90;;;;;;5072163;28;19925;-39
2023/08/27 04:40:30;;;;;;;;;;;13.70;99.90;;;;;;5073752;28;19931;-40
2023/08/27 04:42:58;;;;;;;;;;;13.70;99.90;;;;;;5072333;28;19928;-39
2023/08/27 04:45:24;;;;;;;;;;;13.70;99.90;;;;;;5072319;28;19931;-40
2023/08/27 04:47:52;;;;;;;;;;;13.70;99.90;;;;;;5072894;28;20335;-40
2023/08/27 04:50:19;;;;;;;;;;;13.70;99.90;;;;;;5073376;28;20453;-39
2023/08/27 04:52:46;;;;;;;;;;;13.70;99.90;;;;;;5073114;28;19924;-40
2023/08/27 04:55:12;;;;;;;;;;;13.60;99.90;;;;;;5069969;28;20021;-39
2023/08/27 04:57:39;;;;;;;;;;;13.60;99.90;;;;;;5074308;28;19928;-40
2023/08/27 05:00:07;;;;;;;;;;;13.60;99.90;;;;;;5072690;28;19974;-40
2023/08/27 05:02:34;;;;;;;;;;;13.60;99.90;;;;;;5046674;28;19982;-40
2023/08/27 05:05:02;;;;;;;;;;;13.60;99.90;;;;;;5068971;28;20447;-39
2023/08/27 05:07:28;;;;;;;;;;;13.60;99.90;;;;;;5071861;28;19943;-40
2023/08/27 05:09:55;;;;;;;;;;;13.60;99.90;;;;;;5071572;28;19933;-40
2023/08/27 05:12:22;;;;;;;;;;;13.60;99.90;;;;;;5073230;28;19925;-38
2023/08/27 05:14:49;;;;;;;;;;;13.60;99.90;;;;;;5072786;28;19985;-39
2023/08/27 05:17:15;;;;;;;;;;;13.70;99.90;;;;;;5071992;28;19970;-40
2023/08/27 05:19:42;;;;;;;;;;;13.70;99.90;;;;;;5072576;28;19943;-40
2023/08/27 05:22:10;;;;;;;;;;;13.70;99.90;;;;;;5072029;28;19974;-40
2023/08/27 05:24:37;;;;;;;;;;;13.70;99.90;;;;;;5068106;28;19924;-39
2023/08/27 05:27:04;;;;;;;;;;;13.80;99.90;;;;;;5071083;28;19928;-40
2023/08/27 05:29:31;;;;;;;;;;;13.80;99.90;;;;;;5071203;28;19924;-39
2023/08/27 05:31:57;;;;;;;;;;;13.80;99.90;;;;;;5071994;28;19969;-40
2023/08/27 05:34:24;;;;;;;;;;;13.90;99.90;;;;;;5071228;28;19960;-40
2023/08/27 05:36:50;;;;;;;;;;;13.90;99.90;;;;;;5072413;28;19924;-40
2023/08/27 05:39:19;;;;;;;;;;;14.00;99.90;;;;;;5072365;28;19931;-38
2023/08/27 05:41:46;;;;;;;;;;;14.00;99.90;;;;;;5067597;28;19928;-39
2023/08/27 05:44:13;;;;;;;;;;;14.10;99.90;;;;;;5072413;28;19928;-39
2023/08/27 05:46:39;;;;;;;;;;;14.10;99.90;;;;;;5073298;28;19928;-39
2023/08/27 05:49:06;;;;;;;;;;;14.20;99.90;;;;;;5072786;28;19983;-40
2023/08/27 05:51:33;;;;;;;;;;;14.20;99.90;;;;;;5071438;28;19997;-39
2023/08/27 05:53:59;;;;;;;;;;;14.30;99.90;;;;;;5067703;28;19971;-39
2023/08/27 05:56:27;;;;;;;;;;;14.30;99.90;;;;;;5064868;28;19933;-40
2023/08/27 05:58:54;;;;;;;;;;;14.30;99.90;;;;;;5064573;28;19925;-40
2023/08/27 06:01:21;;;;;;;;;;;14.30;99.90;;;;;;5071028;28;19925;-40
2023/08/27 06:03:48;;;;;;;;;;;14.30;99.90;;;;;;5071640;28;19931;-39
2023/08/27 06:06:14;;;;;;;;;;;14.30;99.90;;;;;;5072236;28;20372;-39
2023/08/27 06:08:41;;;;;;;;;;;14.30;99.90;;;;;;5071322;28;20343;-40
2023/08/27 06:11:08;;;;;;;;;;;14.30;99.90;;;;;;5071237;28;19982;-40
2023/08/27 06:13:36;;;;;;;;;;;14.30;99.90;;;;;;5072433;28;19925;-40
2023/08/27 06:16:03;;;;;;;;;;;14.30;99.90;;;;;;5061492;28;19925;-40
2023/08/27 06:18:30;;;;;;;;;;;14.30;99.90;;;;;;5068078;28;20007;-40
2023/08/27 06:20:56;;;;;;;;;;;14.40;99.90;;;;;;5070831;28;19924;-40
2023/08/27 06:23:24;;;;;;;;;;;14.30;99.90;;;;;;5071662;28;19935;-40
2023/08/27 06:25:51;;;;;;;;;;;14.30;99.90;;;;;;5071481;28;19968;-40
2023/08/27 06:28:17;;;;;;;;;;;14.30;99.90;;;;;;5070820;28;19970;-41
2023/08/27 06:30:45;;;;;;;;;;;14.30;99.90;;;;;;5071561;28;20400;-40
2023/08/27 06:33:12;;;;;;;;;;;14.30;99.90;;;;;;5070971;28;20322;-40
2023/08/27 06:35:39;;;;;;;;;;;14.30;99.90;;;;;;5065601;28;19971;-40
2023/08/27 06:38:06;;;;;;;;;;;14.30;99.90;;;;;;5070363;28;20338;-40
2023/08/27 06:40:32;;;;;;;;;;;14.40;99.90;;;;;;5070808;28;19939;-40
2023/08/27 06:42:59;;;;;;;;;;;14.30;99.90;;;;;;5070096;28;20352;-40
2023/08/27 06:45:27;;;;;;;;;;;14.40;99.90;;;;;;5068481;28;19967;-39
2023/08/27 06:47:55;;;;;;;;;;;14.40;99.90;;;;;;5070377;28;20023;-40
2023/08/27 06:50:22;;;;;;;;;;;14.40;99.90;;;;;;5046971;28;19971;-40
2023/08/27 06:52:49;;;;;;;;;;;14.40;99.90;;;;;;5043588;28;19960;-40
2023/08/27 06:55:15;;;;;;;;;;;14.40;99.90;;;;;;5029796;28;19929;-40
2023/08/27 06:57:42;;;;;;;;;;;14.40;99.90;;;;;;5034813;28;19951;-40
2023/08/27 07:00:09;;;;;;;;;;;14.40;99.90;;;;;;5026635;28;20007;-39
2023/08/27 07:02:36;;;;;;;;;;;14.50;99.90;;;;;;5031829;28;19935;-39
2023/08/27 07:05:08;;;;;;;;;;;14.50;99.90;;;;;;5028410;28;19971;-40
2023/08/27 07:07:37;;;;;;;;;;;14.50;99.90;;;;;;5029526;28;19925;-40
2023/08/27 07:10:04;;;;;;;;;;;14.60;99.90;;;;;;5030251;28;19925;-39
2023/08/27 07:12:32;;;;;;;;;;;14.60;99.90;;;;;;5033410;28;19925;-40
2023/08/27 07:14:59;;;;;;;;;;;14.60;99.90;;;;;;5030969;28;19929;-39
2023/08/27 07:17:26;;;;;;;;;;;14.60;99.90;;;;;;5038088;28;19959;-40
2023/08/27 07:19:53;;;;;;;;;;;14.60;99.90;;;;;;5030615;28;19926;-39
2023/08/27 07:22:21;;;;;;;;;;;14.60;99.90;;;;;;5031209;28;20301;-39
2023/08/27 07:24:48;;;;;;;;;;;14.70;99.90;;;;;;5030342;28;19929;-40
2023/08/27 07:27:15;;;;;;;;;;;14.60;99.90;;;;;;5034228;28;20362;-38
2023/08/27 07:29:41;;;;;;;;;;;14.60;99.90;;;;;;5029879;28;19925;-39
2023/08/27 07:32:08;;;;;;;;;;;14.60;99.90;;;;;;5030040;28;19929;-39
2023/08/27 07:34:35;;;;;;;;;;;14.60;99.90;;;;;;5030396;28;19925;-39
2023/08/27 07:37:01;;;;;;;;;;;14.60;99.90;;;;;;5027747;28;19933;-39
2023/08/27 07:39:29;;;;;;;;;;;14.60;99.90;;;;;;5039385;28;19948;-40
2023/08/27 07:41:56;;;;;;;;;;;14.70;99.90;;;;;;5035179;28;19971;-39
2023/08/27 07:44:23;;;;;;;;;;;14.80;99.90;;;;;;5028646;28;20293;-38
2023/08/27 07:46:49;;;;;;;;;;;15.10;99.90;;;;;;5028810;28;19940;-39
2023/08/27 07:49:16;;;;;;;;;;;15.20;99.90;;;;;;5053172;28;20284;-39
2023/08/27 07:51:43;;;;;;;;;;;15.30;99.90;;;;;;5071150;28;19924;-40
2023/08/27 07:54:10;;;;;;;;;;;15.40;99.90;;;;;;5073937;28;19925;-39
2023/08/27 07:56:38;;;;;;;;;;;15.50;99.90;;;;;;5073408;28;19932;-40
2023/08/27 07:59:05;;;;;;;;;;;15.60;99.90;;;;;;5073576;28;19925;-40
2023/08/27 08:01:32;;;;;;;;;;;15.70;99.90;;;;;;5074015;28;19932;-40
2023/08/27 08:03:58;;;;;;;;;;;15.80;99.90;;;;;;5072496;28;20365;-39
2023/08/27 08:06:25;;;;;;;;;;;16.00;99.90;;;;;;5072945;28;19953;-40
2023/08/27 08:08:52;;;;;;;;;;;16.10;99.90;;;;;;5075259;28;20442;-40
2023/08/27 08:11:18;;;;;;;;;;;16.20;99.90;;;;;;5073197;28;19968;-40
2023/08/27 08:13:47;;;;;;;;;;;16.30;99.90;;;;;;5072664;28;19924;-40
2023/08/27 08:16:13;;;;;;;;;;;16.40;99.90;;;;;;5066720;28;19940;-40
2023/08/27 08:18:40;;;;;;;;;;;16.40;99.90;;;;;;5072210;28;20284;-40
2023/08/27 08:21:07;;;;;;;;;;;16.60;99.90;;;;;;5064283;28;20431;-40
2023/08/27 08:23:33;;;;;;;;;;;16.70;99.90;;;;;;5072585;28;20372;-40
2023/08/27 08:26:00;;;;;;;;;;;16.80;99.90;;;;;;5072482;28;19979;-40
2023/08/27 08:28:27;;;;;;;;;;;16.90;99.90;;;;;;5070728;28;19924;-40
2023/08/27 08:30:55;;;;;;;;;;;17.00;99.90;;;;;;5070972;28;19978;-40
2023/08/27 08:33:22;;;;;;;;;;;17.10;99.90;;;;;;5073360;28;20310;-40
2023/08/27 08:35:49;;;;;;;;;;;17.20;99.90;;;;;;5073582;28;19932;-40
2023/08/27 08:38:15;;;;;;;;;;;17.40;99.90;;;;;;5071545;28;19925;-40
2023/08/27 08:40:44;;;;;;;;;;;17.50;99.90;;;;;;5070263;28;20388;-40
2023/08/27 08:43:12;;;;;;;;;;;17.70;99.90;;;;;;5067493;28;20308;-40
2023/08/27 08:45:40;;;;;;;;;;;17.80;99.90;;;;;;5070431;28;19970;-40
2023/08/27 08:48:09;;;;;;;;;;;17.90;99.90;;;;;;5071992;28;19920;-40
2023/08/27 08:50:35;;;;;;;;;;;18.00;99.90;;;;;;5071322;28;19920;-41
2023/08/27 08:53:02;;;;;;;;;;;18.20;99.90;;;;;;5073197;28;20435;-41
2023/08/27 08:55:29;;;;;;;;;;;18.30;99.90;;;;;;5072838;28;19933;-40
2023/08/27 08:57:57;;;;;;;;;;;18.30;99.90;;;;;;5072402;28;20010;-40
2023/08/27 09:00:24;;;;;;;;;;;18.30;99.90;;;;;;5070453;28;20275;-40
2023/08/27 09:02:51;;;;;;;;;;;18.30;99.90;;;;;;5071184;28;19924;-40
2023/08/27 09:05:19;;;;;;;;;;;18.50;99.90;;;;;;5072341;28;19927;-40
2023/08/27 09:07:46;;;;;;;;;;;18.60;99.90;;;;;;5071423;28;20429;-41
2023/08/27 09:10:13;;;;;;;;;;;18.70;99.90;;;;;;5071209;28;19931;-40
2023/08/27 09:12:40;;;;;;;;;;;18.90;99.90;;;;;;5071567;28;19942;-41
2023/08/27 09:15:08;;;;;;;;;;;19.00;99.90;;;;;;5069193;28;19920;-40
2023/08/27 09:17:34;;;;;;;;;;;19.10;99.90;;;;;;5070522;28;19924;-41
2023/08/27 09:20:01;;;;;;;;;;;19.20;99.90;;;;;;5072177;28;20384;-41
2023/08/27 09:22:29;;;;;;;;;;;19.20;99.90;;;;;;5069568;28;19928;-40
2023/08/27 09:24:56;;;;;;;;;;;19.20;99.90;;;;;;5069536;28;19927;-40
2023/08/27 09:27:22;;;;;;;;;;;19.20;99.90;;;;;;5071436;28;19920;-40
2023/08/27 09:29:49;;;;;;;;;;;19.30;99.90;;;;;;5069581;28;19920;-40
2023/08/27 09:32:20;;;;;;;;;;;19.40;99.90;;;;;;5072320;28;19970;-40
2023/08/27 09:34:46;;;;;;;;;;;19.50;99.90;;;;;;5069110;28;19932;-40
2023/08/27 09:37:13;;;;;;;;;;;19.70;99.90;;;;;;5071844;28;19920;-40
2023/08/27 09:39:44;;;;;;;;;;;19.80;99.90;;;;;;5069814;28;19921;-40
2023/08/27 09:42:11;;;;;;;;;;;19.80;99.90;;;;;;5070742;28;19925;-41
2023/08/27 09:44:38;;;;;;;;;;;19.90;99.90;;;;;;5071834;28;20269;-40
2023/08/27 09:47:05;;;;;;;;;;;20.10;99.90;;;;;;5072179;28;19921;-40
2023/08/27 09:49:32;;;;;;;;;;;20.20;99.90;;;;;;5069441;28;19920;-40
2023/08/27 09:51:59;;;;;;;;;;;20.50;99.90;;;;;;5067297;28;19977;-40
2023/08/27 09:54:29;;;;;;;;;;;20.50;99.90;;;;;;5059541;28;19947;-41
2023/08/27 09:56:59;;;;;;;;;;;20.50;99.90;;;;;;5068515;28;20323;-40
2023/08/27 09:59:26;;;;;;;;;;;20.50;99.90;;;;;;5066039;28;19974;-40
2023/08/27 10:01:53;;;;;;;;;;;20.40;99.90;;;;;;5071516;28;20061;-40
2023/08/27 10:04:20;;;;;;;;;;;20.40;99.90;;;;;;5070198;28;19989;-40
2023/08/27 10:06:47;;;;;;;;;;;20.30;99.90;;;;;;5068064;28;19920;-41
2023/08/27 10:09:14;;;;;;;;;;;20.20;99.90;;;;;;5070290;28;20019;-41
2023/08/27 10:11:41;;;;;;;;;;;20.20;99.90;;;;;;5067565;28;20395;-40
2023/08/27 10:14:09;;;;;;;;;;;20.30;99.90;;;;;;5061093;28;19940;-40
2023/08/27 10:16:36;;;;;;;;;;;20.30;99.90;;;;;;5062660;28;20016;-41
2023/08/27 10:19:03;;;;;;;;;;;20.40;99.90;;;;;;5067447;28;19966;-40
2023/08/27 10:21:30;;;;;;;;;;;20.60;99.90;;;;;;5066269;28;20387;-40
2023/08/27 10:23:57;;;;;;;;;;;20.70;99.90;;;;;;5067860;28;19924;-41
2023/08/27 10:26:24;;;;;;;;;;;20.90;99.90;;;;;;5069915;28;19931;-40
2023/08/27 10:28:51;;;;;;;;;;;21.20;99.90;;;;;;5070118;28;19999;-40
2023/08/27 10:31:19;;;;;;;;;;;21.30;99.90;;;;;;5066161;28;19920;-40
2023/08/27 10:33:47;;;;;;;;;;;21.30;99.90;;;;;;5067896;28;20401;-40
2023/08/27 10:36:16;;;;;;;;;;;21.30;99.90;;;;;;5068864;28;19924;-41
2023/08/27 10:38:43;;;;;;;;;;;21.20;99.90;;;;;;5066515;28;19943;-40
2023/08/27 10:41:09;;;;;;;;;;;21.00;99.90;;;;;;5070972;28;19921;-40
2023/08/27 10:43:36;;;;;;;;;;;20.90;99.90;;;;;;5070785;28;19928;-39
2023/08/27 10:46:09;;;;;;;;;;;20.70;99.90;;;;;;5067017;28;19924;-37
2023/08/27 10:48:38;;;;;;;;;;;20.50;99.90;;;;;;5069450;28;19927;-40
2023/08/27 10:51:09;;;;;;;;;;;20.40;99.90;;;;;;5069787;28;20023;-41
2023/08/27 10:53:39;;;;;;;;;;;20.30;99.90;;;;;;5066542;28;19921;-40
2023/08/27 10:56:05;;;;;;;;;;;20.20;99.90;;;;;;5066355;28;19970;-40
2023/08/27 10:58:32;;;;;;;;;;;20.00;99.90;;;;;;5064240;28;19929;-41
2023/08/27 11:01:03;;;;;;;;;;;20.00;99.90;;;;;;5061387;28;19928;-41
2023/08/27 11:03:45;;;;;;;;;;;19.90;99.90;;;;;;5062956;28;19968;-40
2023/08/27 11:06:13;;;;;;;;;;;19.80;99.90;;;;;;5063307;28;19924;-41
2023/08/27 11:08:41;;;;;;;;;;;19.80;99.90;;;;;;5063458;28;19933;-40
2023/08/27 11:11:11;;;;;;;;;;;19.70;99.90;;;;;;5063573;28;19935;-40
2023/08/27 11:13:38;;;;;;;;;;;19.70;99.90;;;;;;5062238;28;20383;-40
2023/08/27 11:16:08;;;;;;;;;;;19.70;99.90;;;;;;5060313;28;19936;-40
2023/08/27 11:18:43;;;;;;;;;;;19.70;99.90;;;;;;5064215;28;20015;-40
2023/08/27 11:21:20;;;;;;;;;;;19.70;99.90;;;;;;5067601;28;19931;-41
2023/08/27 11:23:58;;;;;;;;;;;19.80;99.90;;;;;;5066270;28;20037;-40
2023/08/27 11:26:25;;;;;;;;;;;19.70;99.90;;;;;;5069373;28;20004;-40
2023/08/27 11:28:51;;;;;;;;;;;19.80;99.90;;;;;;5072260;28;19963;-40
2023/08/27 11:31:18;;;;;;;;;;;19.80;99.90;;;;;;5072006;28;19921;-40
2023/08/27 11:33:45;;;;;;;;;;;19.80;99.90;;;;;;5071756;28;20368;-40
2023/08/27 11:36:12;;;;;;;;;;;19.80;99.90;;;;;;5070277;28;19920;-40
2023/08/27 11:38:40;;;;;;;;;;;19.70;99.90;;;;;;5072711;28;19981;-40
2023/08/27 11:41:07;;;;;;;;;;;19.60;99.90;;;;;;5072427;28;20310;-41
2023/08/27 11:43:34;;;;;;;;;;;19.50;99.90;;;;;;5072616;28;19924;-41
2023/08/27 11:46:01;;;;;;;;;;;19.50;99.90;;;;;;5072209;28;19955;-40
2023/08/27 11:48:28;;;;;;;;;;;19.40;99.90;;;;;;5073637;28;19920;-41
2023/08/27 11:50:55;;;;;;;;;;;19.30;99.90;;;;;;5071479;28;20007;-40
2023/08/27 11:53:22;;;;;;;;;;;19.20;99.90;;;;;;5072287;28;19932;-40
2023/08/27 11:55:50;;;;;;;;;;;19.30;99.90;;;;;;5073644;28;19974;-41
2023/08/27 11:58:18;;;;;;;;;;;19.10;99.90;;;;;;5072642;28;19924;-40
2023/08/27 12:00:44;;;;;;;;;;;19.00;99.90;;;;;;5073332;28;19920;-41
2023/08/27 12:03:11;;;;;;;;;;;18.70;99.90;;;;;;5069660;28;20283;-40
2023/08/27 12:05:38;;;;;;;;;;;18.40;99.90;;;;;;5073884;28;20364;-41
2023/08/27 12:08:08;;;;;;;;;;;18.20;99.90;;;;;;5073450;28;19920;-41
2023/08/27 12:10:36;;;;;;;;;;;18.00;99.90;;;;;;5072160;28;19921;-41
2023/08/27 12:13:05;;;;;;;;;;;17.80;99.90;;;;;;5065450;28;19930;-40
2023/08/27 12:15:32;;;;;;;;;;;17.80;99.90;;;;;;5071076;28;20368;-41
2023/08/27 12:17:59;;;;;;;;;;;17.80;99.90;;;;;;5074235;28;20283;-40
2023/08/27 12:20:30;;;;;;;;;;;17.80;99.90;;;;;;5068852;28;19921;-40
2023/08/27 12:22:58;;;;;;;;;;;17.90;99.90;;;;;;5069965;28;20293;-40
2023/08/27 12:25:25;;;;;;;;;;;18.10;99.90;;;;;;5071810;28;20375;-41
2023/08/27 12:27:52;;;;;;;;;;;18.30;99.90;;;;;;5072774;28;19924;-40
2023/08/27 12:30:21;;;;;;;;;;;18.50;99.90;;;;;;5074562;28;20344;-41
2023/08/27 12:32:54;;;;;;;;;;;18.80;99.90;;;;;;5072699;28;19921;-41
2023/08/27 12:35:20;;;;;;;;;;;19.00;99.90;;;;;;5071896;28;19943;-41
2023/08/27 12:37:48;;;;;;;;;;;19.10;99.90;;;;;;5073149;28;19952;-40
2023/08/27 12:40:14;;;;;;;;;;;19.10;99.90;;;;;;5068458;28;19932;-41
2023/08/27 12:42:41;;;;;;;;;;;19.20;99.90;;;;;;5068516;28;19978;-41
2023/08/27 12:45:08;;;;;;;;;;;19.30;99.90;;;;;;5071830;28;19927;-40
2023/08/27 12:47:36;;;;;;;;;;;19.30;99.90;;;;;;5066919;28;20337;-40
2023/08/27 12:50:03;;;;;;;;;;;19.30;99.90;;;;;;5071310;28;19924;-40
2023/08/27 12:52:30;;;;;;;;;;;19.30;99.90;;;;;;5072658;28;20360;-41
2023/08/27 12:54:56;;;;;;;;;;;19.30;99.90;;;;;;5072880;28;19978;-41
2023/08/27 12:57:24;;;;;;;;;;;19.30;99.90;;;;;;5071506;28;19962;-40
2023/08/27 12:59:51;;;;;;;;;;;19.30;99.90;;;;;;5070547;28;19921;-40
2023/08/27 13:02:19;;;;;;;;;;;19.30;99.90;;;;;;5069882;28;19920;-40
2023/08/27 13:04:47;;;;;;;;;;;19.30;99.90;;;;;;5071139;28;19921;-41
2023/08/27 13:07:14;;;;;;;;;;;19.40;99.90;;;;;;5070234;28;19931;-41
2023/08/27 13:09:40;;;;;;;;;;;19.40;99.90;;;;;;5071828;28;20252;-41
2023/08/27 13:12:07;;;;;;;;;;;19.40;99.90;;;;;;5070782;28;19982;-41
2023/08/27 13:14:34;;;;;;;;;;;19.40;99.90;;;;;;5066890;28;20392;-41
2023/08/27 13:17:02;;;;;;;;;;;19.20;99.90;;;;;;5069351;28;19986;-40
2023/08/27 13:19:28;;;;;;;;;;;19.10;99.90;;;;;;5069308;28;19935;-41
2023/08/27 13:21:56;;;;;;;;;;;18.90;99.90;;;;;;5067497;28;19921;-41
2023/08/27 13:24:23;;;;;;;;;;;18.80;99.90;;;;;;5071841;28;20389;-40
2023/08/27 13:26:50;;;;;;;;;;;18.70;99.90;;;;;;5065932;28;21538;-40
2023/08/27 13:29:17;;;;;;;;;;;18.70;99.90;;;;;;5070105;28;19927;-41
2023/08/27 13:31:43;;;;;;;;;;;18.70;99.90;;;;;;5069807;28;19924;-40
2023/08/27 13:34:10;;;;;;;;;;;18.70;99.90;;;;;;5070242;28;19920;-41
2023/08/27 13:36:37;;;;;;;;;;;18.70;99.90;;;;;;5071505;28;19970;-41
2023/08/27 13:39:05;;;;;;;;;;;18.70;99.90;;;;;;5070451;28;19959;-40
2023/08/27 13:41:34;;;;;;;;;;;18.70;99.90;;;;;;5065438;28;20360;-41
2023/08/27 13:44:01;;;;;;;;;;;18.70;99.90;;;;;;5069627;28;20358;-40
2023/08/27 13:46:27;;;;;;;;;;;18.70;99.90;;;;;;5071497;28;20310;-40
2023/08/27 13:48:54;;;;;;;;;;;18.80;99.90;;;;;;5061672;28;20430;-40
2023/08/27 13:51:21;;;;;;;;;;;19.10;99.90;;;;;;5064323;28;20322;-41
2023/08/27 13:53:48;;;;;;;;;;;19.20;99.90;;;;;;5064056;28;19967;-40
2023/08/27 13:56:16;;;;;;;;;;;19.40;99.90;;;;;;5063624;28;19955;-40
2023/08/27 13:58:42;;;;;;;;;;;19.70;99.90;;;;;;5066198;28;20288;-41
2023/08/27 14:01:09;;;;;;;;;;;19.90;99.90;;;;;;5064766;28;19982;-41
2023/08/27 14:03:36;;;;;;;;;;;20.00;99.90;;;;;;5065890;28;19924;-40
2023/08/27 14:06:02;;;;;;;;;;;20.20;99.90;;;;;;5065873;28;19920;-40
2023/08/27 14:08:29;;;;;;;;;;;20.30;99.90;;;;;;5064835;28;19939;-41
2023/08/27 14:10:56;;;;;;;;;;;20.40;99.90;;;;;;5062848;28;19932;-40
2023/08/27 14:13:24;;;;;;;;;;;20.50;99.90;;;;;;5069352;28;19928;-41
2023/08/27 14:15:51;;;;;;;;;;;20.40;99.90;;;;;;5070455;28;19935;-41